Terminal Aerodrome Forecast
Issued by NWS Corpus Christi, TX

Home | Current Version | Previous Version | Text Only | Print | Product List | Glossary On
Versions: 1 2 3 4 5 6 7 8 9 10 11 12 13
000
FTUS44 KCRP 111700
TAFCRP
TAF
KCRP 111732Z 1118/1218 14017G25KT P6SM SCT030 BKN150
     FM120100 15010KT P6SM FEW025 BKN150
     FM120700 14004KT P6SM SCT015 BKN250
      TEMPO 1209/1213 BKN015
     FM121400 15012KT P6SM SCT025=

USA.gov is the U.S. government's official web portal to all federal, state and local government web resources and services.